Huvudsida
METAR-TAF:

METAR-TAF

Flygplatser :

Rasht Airport

Rasht, Iran

latitud: 37-12N, longitud: 049-38E, höjd: -7 m

Aktuellt väderrapport

Denna rapport gjordes för 37 minuter sedan, klockan 08:00 UTC
Stilla vind
Temperatur 10°C
Fuktighet 93%
Tryck 1021 hPa
Sikt: 4500 m
Brutna moln på en höjd av 1000 ft
Mulet på en höjd av 8000 ft
fuktdis

METAR: OIGG 220800Z 00000KT 4500 BR BKN010 OVC080 10/09 Q1021

Tid: 12:07 (08:37 UTC)


TAF: saknas

Aktuella väderrapporter och prognoser från 4000 flygplatser (METAR- och TAF-rapporter).

De tillgängliga stationerna syns som gula och röda prickar på kartan.

För musen över prickarna för att se namnen på stationerna.

Klicka sedan för att få väderrapporter och prognoser.

För att ändra kartan: Klicka på de gröna knapparna med ett svart kors på för att zooma in; den gröna knappen med ett streck på för att zooma ut; eller på de gröna pilarna för angränsande kartor.


METAR-TAF: